createdAt,value
2017-09-27T00:03:48.890Z,39.7
2017-09-27T00:14:03.069Z,29.4
2017-09-27T00:24:17.317Z,54.8
2017-09-27T00:34:31.321Z,20.5
2017-09-27T00:44:44.900Z,24.7
2017-09-27T00:54:58.878Z,23.0
2017-09-27T01:05:13.338Z,21.6
2017-09-27T01:15:27.585Z,20.8
2017-09-27T01:25:41.779Z,40.1
2017-09-27T01:35:55.914Z,30.0
2017-09-27T01:46:10.076Z,36.9
2017-09-27T01:56:21.344Z,21.9
2017-09-27T02:07:05.116Z,43.9
2017-09-27T02:17:16.402Z,41.0
2017-09-27T02:28:00.595Z,49.4
2017-09-27T02:38:44.911Z,43.7
2017-09-27T02:48:59.100Z,26.3
2017-09-27T02:59:13.405Z,24.9
2017-09-27T03:09:27.400Z,35.6
2017-09-27T03:19:41.710Z,25.5
2017-09-27T03:29:56.214Z,35.7
2017-09-27T03:40:10.597Z,38.9
2017-09-27T03:50:24.260Z,31.3
2017-09-27T04:00:38.709Z,47.8
2017-09-27T04:10:53.180Z,79.5
2017-09-27T04:21:37.605Z,88.4
2017-09-27T04:31:51.690Z,64.5
2017-09-27T04:42:05.793Z,53.2
2017-09-27T04:52:20.532Z,78.9
2017-09-27T05:02:34.254Z,90.5
2017-09-27T05:12:47.544Z,106.5
2017-09-27T05:23:01.896Z,92.7
2017-09-27T05:33:16.028Z,99.1
2017-09-27T05:43:30.485Z,127.0
2017-09-27T05:54:15.041Z,194.8
2017-09-27T06:04:29.228Z,89.8
2017-09-27T06:14:43.698Z,121.5
2017-09-27T06:24:57.820Z,149.3
2017-09-27T06:35:08.974Z,190.9
2017-09-27T06:45:23.117Z,149.3
2017-09-27T06:55:36.681Z,113.6
2017-09-27T07:05:50.667Z,129.6
2017-09-27T07:16:04.785Z,83.2
2017-09-27T07:26:19.257Z,103.5
2017-09-27T07:36:33.275Z,91.1
2017-09-27T07:46:47.769Z,85.1
2017-09-27T07:57:00.022Z,82.6
2017-09-27T08:07:14.054Z,86.7
2017-09-27T08:17:29.019Z,70.1
2017-09-27T08:27:42.471Z,75.1
2017-09-27T08:37:56.702Z,44.3
2017-09-27T08:48:11.204Z,48.2
2017-09-27T08:58:25.115Z,36.6
2017-09-27T09:08:39.629Z,31.9
2017-09-27T09:18:51.525Z,24.5
2017-09-27T09:29:35.624Z,41.2
2017-09-27T09:40:25.271Z,33.4
2017-09-27T09:50:39.483Z,33.2
2017-09-27T10:00:51.290Z,26.4
2017-09-27T10:11:35.517Z,18.3
2017-09-27T10:21:49.603Z,24.5
2017-09-27T10:32:02.802Z,19.0
2017-09-27T10:42:15.715Z,16.2
2017-09-27T10:52:29.797Z,15.9
2017-09-27T11:02:43.620Z,22.2
2017-09-27T11:12:57.715Z,13.4
2017-09-27T11:24:19.010Z,19.7
2017-09-27T11:35:04.058Z,13.6
2017-09-27T11:45:48.546Z,13.9
2017-09-27T11:56:02.066Z,13.9
2017-09-27T12:06:52.275Z,14.8
2017-09-27T12:17:07.540Z,15.0
2017-09-27T12:27:22.776Z,11.0
2017-09-27T12:37:40.391Z,16.0
2017-09-27T12:48:24.230Z,17.1
2017-09-27T12:58:40.485Z,18.7
2017-09-27T13:08:54.621Z,11.9
2017-09-27T13:19:09.624Z,8.2
2017-09-27T13:29:23.631Z,11.3
2017-09-27T13:39:41.226Z,17.9
2017-09-27T13:49:58.272Z,9.1
2017-09-27T14:00:47.880Z,13.2
2017-09-27T14:11:34.026Z,16.3
2017-09-27T14:21:48.454Z,12.9
2017-09-27T14:32:06.655Z,14.4
2017-09-27T14:42:22.380Z,10.3
2017-09-27T14:52:40.611Z,9.2
2017-09-27T15:03:26.957Z,12.8
2017-09-27T15:13:41.555Z,22.7
2017-09-27T15:23:54.994Z,8.7
2017-09-27T15:34:09.391Z,11.7
2017-09-27T15:44:23.698Z,12.8
2017-09-27T15:54:37.621Z,16.1
2017-09-27T16:05:23.451Z,26.8
2017-09-27T16:16:08.048Z,19.4
2017-09-27T16:26:22.137Z,14.9
2017-09-27T16:37:07.084Z,17.5
2017-09-27T16:47:18.560Z,12.2
2017-09-27T16:57:36.192Z,15.6
2017-09-27T17:07:49.699Z,17.9
2017-09-27T17:18:10.529Z,17.6
2017-09-27T17:28:25.056Z,13.5
2017-09-27T17:38:38.615Z,19.3
2017-09-27T17:48:59.801Z,29.5
2017-09-27T17:59:14.273Z,21.9
2017-09-27T18:09:29.208Z,20.0
2017-09-27T18:19:44.195Z,31.4
2017-09-27T18:29:59.747Z,31.9
2017-09-27T18:40:44.806Z,34.0
2017-09-27T18:51:00.846Z,23.5
2017-09-27T19:01:18.365Z,22.0
2017-09-27T19:11:36.014Z,32.2
2017-09-27T19:21:51.947Z,20.3
2017-09-27T19:32:05.781Z,30.1
2017-09-27T19:42:20.777Z,35.7
2017-09-27T19:52:36.086Z,34.4
2017-09-27T20:03:21.449Z,31.0
2017-09-27T20:14:06.218Z,41.3
2017-09-27T20:24:23.804Z,24.0
2017-09-27T20:34:38.664Z,16.8
2017-09-27T20:44:49.787Z,33.1
2017-09-27T20:55:03.234Z,32.3
2017-09-27T21:05:48.051Z,44.3
2017-09-27T21:16:32.909Z,54.5
2017-09-27T21:27:21.864Z,43.5
2017-09-27T21:37:35.901Z,20.2
2017-09-27T21:47:49.730Z,21.5
2017-09-27T21:58:08.383Z,31.0
2017-09-27T22:08:22.306Z,30.9
2017-09-27T22:18:36.363Z,39.8
2017-09-27T22:28:52.500Z,31.1
2017-09-27T22:39:10.753Z,29.7
2017-09-27T22:49:28.928Z,32.8
2017-09-27T22:59:43.773Z,40.6
2017-09-27T23:10:28.177Z,74.6
2017-09-27T23:21:12.920Z,46.2
2017-09-27T23:31:57.424Z,60.6
2017-09-27T23:42:11.555Z,42.2
2017-09-27T23:52:25.927Z,46.3
